createdAt,value
2019-05-20T00:00:17.287Z,6.20
2019-05-20T00:05:22.045Z,6.90
2019-05-20T00:10:26.816Z,6.20
2019-05-20T00:15:32.835Z,6.30
2019-05-20T00:20:36.211Z,6.00
2019-05-20T00:25:39.742Z,6.23
2019-05-20T00:30:43.106Z,6.30
2019-05-20T00:35:48.515Z,6.67
2019-05-20T00:40:53.317Z,6.43
2019-05-20T00:45:58.287Z,6.47
2019-05-20T00:51:04.264Z,5.93
2019-05-20T00:56:09.092Z,6.50
2019-05-20T01:01:13.245Z,6.33
2019-05-20T01:06:17.206Z,6.90
2019-05-20T01:11:21.488Z,6.30
2019-05-20T01:16:25.635Z,5.97
2019-05-20T01:21:29.588Z,6.30
2019-05-20T01:26:33.763Z,7.00
2019-05-20T01:31:37.731Z,5.97
2019-05-20T01:36:41.923Z,6.40
2019-05-20T01:41:46.937Z,6.07
2019-05-20T01:46:51.842Z,6.60
2019-05-20T01:51:55.960Z,5.93
2019-05-20T01:57:00.111Z,6.30
2019-05-20T02:02:04.351Z,6.50
2019-05-20T02:07:08.594Z,6.80
2019-05-20T02:12:12.829Z,6.00
2019-05-20T02:17:16.721Z,6.73
2019-05-20T02:22:21.701Z,5.73
2019-05-20T02:27:26.557Z,6.10
2019-05-20T02:32:31.840Z,6.70
2019-05-20T02:37:37.900Z,6.57
2019-05-20T02:42:42.914Z,6.50
2019-05-20T02:47:47.992Z,6.50
2019-05-20T02:52:54.206Z,6.67
2019-05-20T02:57:59.077Z,6.53
2019-05-20T03:03:04.010Z,6.70
2019-05-20T03:08:09.034Z,7.27
2019-05-20T03:13:13.931Z,7.27
2019-05-20T03:18:20.203Z,6.37
2019-05-20T03:23:25.171Z,6.17
2019-05-20T03:28:30.077Z,6.73
2019-05-20T03:33:35.165Z,6.47
2019-05-20T03:38:39.975Z,5.70
2019-05-20T03:43:44.851Z,6.40
2019-05-20T03:48:49.651Z,6.83
2019-05-20T03:53:55.524Z,7.10
2019-05-20T03:59:00.559Z,6.83
2019-05-20T04:04:05.825Z,5.80
2019-05-20T04:09:10.936Z,6.77
2019-05-20T04:14:16.465Z,6.63
2019-05-20T04:19:21.673Z,7.57
2019-05-20T04:24:26.582Z,7.27
2019-05-20T04:29:31.608Z,7.20
2019-05-20T04:34:36.880Z,7.10
2019-05-20T04:39:41.758Z,6.70
2019-05-20T04:44:46.999Z,7.90
2019-05-20T04:49:51.881Z,7.80
2019-05-20T04:54:58.045Z,8.13
2019-05-20T05:00:03.233Z,8.03
2019-05-20T05:05:08.974Z,8.13
2019-05-20T05:10:14.371Z,7.80
2019-05-20T05:15:19.831Z,8.40
2019-05-20T05:20:24.963Z,8.30
2019-05-20T05:25:30.415Z,8.43
2019-05-20T05:30:35.817Z,9.27
2019-05-20T05:35:52.291Z,8.80
2019-05-20T05:40:46.257Z,9.37
2019-05-20T05:45:50.656Z,10.30
2019-05-20T05:50:54.488Z,11.13
2019-05-20T05:55:59.006Z,11.37
2019-05-20T06:01:02.699Z,14.13
2019-05-20T06:06:13.059Z,14.33
2019-05-20T06:11:15.673Z,13.07
2019-05-20T06:16:35.273Z,15.67
2019-05-20T06:21:26.451Z,15.87
2019-05-20T06:26:30.777Z,15.20
2019-05-20T06:31:35.293Z,17.70
2019-05-20T06:36:45.444Z,19.80
2019-05-20T06:41:50.383Z,19.30
2019-05-20T06:46:54.570Z,18.97
2019-05-20T06:51:58.992Z,19.23
2019-05-20T06:57:03.623Z,18.57
2019-05-20T07:02:08.823Z,19.93
2019-05-20T07:07:21.042Z,21.40
2019-05-20T07:12:21.861Z,20.53
2019-05-20T07:23:52.315Z,21.20
2019-05-20T07:28:55.691Z,21.97
2019-05-20T07:34:01.742Z,21.70
2019-05-20T07:39:07.202Z,22.33
2019-05-20T07:44:11.419Z,21.40
2019-05-20T07:49:17.018Z,20.87
2019-05-20T07:54:23.832Z,22.40
2019-05-20T07:59:32.215Z,22.40
2019-05-20T08:04:37.480Z,21.50
2019-05-20T08:09:46.019Z,22.23
2019-05-20T08:14:49.767Z,21.90
2019-05-20T08:19:55.109Z,22.40
2019-05-20T08:25:00.236Z,20.77
2019-05-20T08:30:07.537Z,20.80
2019-05-20T08:35:12.983Z,21.73
2019-05-20T08:40:18.145Z,21.40
2019-05-20T08:45:23.209Z,20.67
2019-05-20T08:50:28.289Z,21.57
2019-05-20T08:55:33.247Z,20.20
2019-05-20T09:00:37.866Z,20.10
2019-05-20T09:05:43.643Z,20.10
2019-05-20T09:10:47.161Z,20.40
2019-05-20T09:15:51.919Z,19.10
2019-05-20T09:20:57.626Z,20.10
2019-05-20T09:26:04.228Z,18.57
2019-05-20T09:31:09.572Z,18.40
2019-05-20T09:36:15.108Z,17.50
2019-05-20T09:41:19.705Z,18.47
2019-05-20T09:46:24.019Z,17.20
2019-05-20T09:51:28.585Z,15.90
2019-05-20T09:56:32.917Z,16.67
2019-05-20T10:01:39.898Z,16.30
2019-05-20T10:06:43.484Z,16.90
2019-05-20T10:11:47.985Z,15.77
2019-05-20T10:16:52.538Z,15.30
2019-05-20T10:21:57.449Z,15.13
2019-05-20T10:27:02.801Z,15.90
2019-05-20T10:32:07.968Z,15.30
2019-05-20T10:37:13.780Z,16.57
2019-05-20T10:42:18.319Z,14.90
2019-05-20T10:47:22.517Z,15.30
2019-05-20T10:52:26.780Z,13.70
2019-05-20T10:57:31.605Z,14.77
2019-05-20T11:02:37.998Z,14.60
2019-05-20T11:07:44.212Z,15.63
2019-05-20T11:12:50.055Z,15.60
2019-05-20T11:17:56.798Z,15.30
2019-05-20T11:23:02.330Z,16.97
2019-05-20T11:28:07.086Z,16.20
2019-05-20T11:33:12.858Z,16.23
2019-05-20T11:38:18.624Z,15.60
2019-05-20T11:43:23.756Z,15.13
2019-05-20T11:48:28.629Z,15.03
2019-05-20T11:53:33.851Z,16.40
2019-05-20T11:58:39.222Z,16.43
2019-05-20T12:03:45.388Z,14.73
2019-05-20T12:08:50.305Z,15.80
2019-05-20T12:13:55.804Z,15.40
2019-05-20T12:19:00.983Z,15.10
2019-05-20T12:24:08.082Z,16.30
2019-05-20T12:29:13.274Z,15.37
2019-05-20T12:34:18.622Z,15.87
2019-05-20T12:39:23.985Z,15.20
2019-05-20T12:44:29.324Z,14.80
2019-05-20T12:49:35.338Z,16.20
2019-05-20T12:54:40.735Z,17.47
2019-05-20T12:59:47.321Z,15.80
2019-05-20T13:04:53.148Z,15.30
2019-05-20T13:10:02.578Z,16.13
2019-05-20T13:15:05.964Z,14.93
2019-05-20T13:20:10.900Z,16.73
2019-05-20T13:25:16.682Z,16.83
2019-05-20T13:30:23.552Z,16.40
2019-05-20T13:35:28.947Z,16.77
2019-05-20T13:40:45.929Z,17.77
2019-05-20T13:45:39.027Z,18.70
2019-05-20T13:50:44.296Z,18.67
2019-05-20T13:55:50.537Z,20.33
2019-05-20T14:00:56.485Z,19.10
2019-05-20T14:06:02.776Z,20.00
2019-05-20T14:11:08.087Z,20.67
2019-05-20T14:16:13.085Z,22.77
2019-05-20T14:21:17.637Z,21.50
2019-05-20T14:26:21.735Z,22.33
2019-05-20T14:31:25.796Z,23.13
2019-05-20T14:36:39.498Z,23.17
2019-05-20T14:41:37.309Z,23.43
2019-05-20T14:46:42.633Z,23.67
2019-05-20T14:51:47.458Z,23.57
2019-05-20T14:56:51.737Z,23.60
2019-05-20T15:01:55.948Z,24.40
2019-05-20T15:07:02.074Z,23.10
2019-05-20T15:12:08.090Z,24.60
2019-05-20T15:17:13.508Z,23.37
2019-05-20T15:22:18.288Z,24.10
2019-05-20T15:27:22.738Z,24.03
2019-05-20T15:32:27.186Z,26.23
2019-05-20T15:37:31.491Z,24.83
2019-05-20T15:42:36.877Z,23.43
2019-05-20T15:47:42.454Z,25.63
2019-05-20T15:52:47.663Z,25.67
2019-05-20T15:57:52.782Z,26.30
2019-05-20T16:02:58.848Z,25.90
2019-05-20T16:08:04.689Z,25.30
2019-05-20T16:13:10.034Z,25.73
2019-05-20T16:18:15.838Z,26.20
2019-05-20T16:23:21.123Z,25.33
2019-05-20T16:28:26.779Z,24.87
2019-05-20T16:33:32.094Z,26.10
2019-05-20T16:38:38.645Z,25.60
2019-05-20T16:43:43.790Z,26.47
2019-05-20T16:48:49.644Z,26.70
2019-05-20T16:53:55.411Z,27.13
2019-05-20T16:59:00.732Z,25.27
2019-05-20T17:04:06.089Z,27.07
2019-05-20T17:09:12.191Z,26.97
2019-05-20T17:14:17.423Z,25.00
2019-05-20T17:19:22.556Z,27.30
2019-05-20T17:24:27.508Z,26.87
2019-05-20T17:29:33.337Z,28.60
2019-05-20T17:34:38.607Z,27.13
2019-05-20T17:39:43.624Z,27.23
2019-05-20T17:44:48.650Z,28.40
2019-05-20T17:49:53.808Z,28.50
2019-05-20T17:54:59.245Z,27.70
2019-05-20T18:00:04.946Z,27.53
2019-05-20T18:05:10.478Z,27.10
2019-05-20T18:10:19.168Z,26.83
2019-05-20T18:15:24.627Z,28.37
2019-05-20T18:20:30.553Z,26.77
2019-05-20T18:25:35.708Z,27.60
2019-05-20T18:30:40.926Z,27.83
2019-05-20T18:35:45.299Z,27.63
2019-05-20T18:40:49.427Z,26.83
2019-05-20T18:45:54.930Z,27.50
2019-05-20T18:50:59.391Z,26.63
2019-05-20T18:56:04.083Z,27.77
2019-05-20T19:01:08.508Z,27.20
2019-05-20T19:06:13.776Z,29.40
2019-05-20T19:11:19.285Z,29.23
2019-05-20T19:16:24.582Z,30.10
2019-05-20T19:21:28.833Z,30.53
2019-05-20T19:26:33.430Z,30.80
2019-05-20T19:31:39.103Z,31.77
2019-05-20T19:36:43.448Z,30.73
2019-05-20T19:41:48.186Z,30.07
2019-05-20T19:46:53.263Z,31.70
2019-05-20T19:51:58.042Z,32.13
2019-05-20T19:57:03.151Z,30.73
2019-05-20T20:02:16.846Z,31.53
2019-05-20T20:07:15.719Z,34.60
2019-05-20T20:12:22.720Z,31.30
2019-05-20T20:17:28.426Z,32.33
2019-05-20T20:22:33.434Z,32.27
2019-05-20T20:27:38.872Z,31.10
2019-05-20T20:32:44.257Z,29.47
2019-05-20T20:37:49.270Z,31.53
2019-05-20T20:42:54.282Z,31.90
2019-05-20T20:47:58.543Z,31.50
2019-05-20T20:53:03.671Z,30.43
2019-05-20T20:58:08.662Z,28.30
2019-05-20T21:03:13.863Z,29.77
2019-05-20T21:08:19.051Z,29.70
2019-05-20T21:13:25.223Z,28.27
2019-05-20T21:18:30.190Z,28.57
2019-05-20T21:23:38.069Z,28.77
2019-05-20T21:28:43.204Z,30.17
2019-05-20T21:33:48.365Z,29.10
2019-05-20T21:38:53.735Z,30.70
2019-05-20T21:43:58.920Z,32.23
2019-05-20T21:49:05.284Z,33.20
2019-05-20T21:54:10.446Z,33.03
2019-05-20T21:59:15.288Z,34.97
2019-05-20T22:04:20.178Z,35.77
2019-05-20T22:09:25.313Z,32.93
2019-05-20T22:14:30.700Z,34.00
2019-05-20T22:19:36.292Z,34.27
2019-05-20T22:24:41.347Z,34.87
2019-05-20T22:29:46.311Z,34.47
2019-05-20T22:34:53.507Z,33.37
2019-05-20T22:39:58.939Z,34.80
2019-05-20T22:45:03.964Z,34.60
2019-05-20T22:50:09.609Z,32.50
2019-05-20T22:55:34.810Z,34.47
2019-05-20T23:00:39.757Z,33.37
2019-05-20T23:05:44.558Z,34.37
2019-05-20T23:10:50.953Z,35.57
2019-05-20T23:15:55.804Z,34.10
2019-05-20T23:21:00.076Z,33.80
2019-05-20T23:26:04.195Z,35.13
2019-05-20T23:31:08.327Z,35.70
2019-05-20T23:36:12.084Z,34.37
2019-05-20T23:41:15.417Z,35.20
2019-05-20T23:46:18.931Z,34.70
2019-05-20T23:51:22.311Z,35.27
2019-05-20T23:56:26.644Z,34.57
